Time;durP1;ratioP1;P1;durP2;ratioP2;P2;SDS_P1;SDS_P2;PMS_P1;PMS_P2;Temp;Humidity;BMP_temperature;BMP_pressure;BME280_temperature;BME280_humidity;BME280_pressure;Samples;Min_cycle;Max_cycle;Signal;HPM_P1;HPM_P2
2021/05/22 00:01:11;;;;;;;;;;;;;;;7.79;90.64;100034.06;5016489;28;20306;-76
2021/05/22 00:03:37;;;;;;;;;;;;;;;7.77;89.80;100025.56;5012349;28;19921;-78
2021/05/22 00:06:02;;;;;;;;;;;;;;;7.72;90.89;100024.38;5023482;28;19924;-76
2021/05/22 00:08:28;;;;;;;;;;;;;;;7.75;90.35;100026.69;5029508;28;19921;-77
2021/05/22 00:10:53;;;;;;;;;;;;;;;7.72;90.11;100025.19;5023093;28;20335;-77
2021/05/22 00:13:19;;;;;;;;;;;;;;;7.73;90.27;100024.22;5019862;28;20396;-76
2021/05/22 00:15:44;;;;;;;;;;;;;;;7.72;89.68;100019.13;5019822;28;20163;-77
2021/05/22 00:18:10;;;;;;;;;;;;;;;7.80;88.48;100021.88;5045085;28;19929;-78
2021/05/22 00:20:35;;;;;;;;;;;;;;;7.69;89.09;100015.03;5028879;28;19920;-77
2021/05/22 00:23:01;;;;;;;;;;;;;;;7.69;89.64;100012.44;5028864;28;20320;-77
2021/05/22 00:25:26;;;;;;;;;;;;;;;7.67;88.92;100010.94;5030502;28;19917;-75
2021/05/22 00:27:52;;;;;;;;;;;;;;;7.60;89.72;100006.28;5021258;28;19920;-76
2021/05/22 00:30:17;;;;;;;;;;;;;;;7.55;89.18;100000.69;5018733;28;19921;-78
2021/05/22 00:32:43;;;;;;;;;;;;;;;7.55;89.29;100010.28;5026004;28;19929;-78
2021/05/22 00:35:08;;;;;;;;;;;;;;;7.54;89.53;100004.25;5028173;28;19917;-76
2021/05/22 00:37:34;;;;;;;;;;;;;;;7.50;89.36;100004.72;5024531;28;19968;-76
2021/05/22 00:39:59;;;;;;;;;;;;;;;7.56;88.44;99997.09;5024884;28;20307;-77
2021/05/22 00:42:25;;;;;;;;;;;;;;;7.58;88.80;100004.78;5030325;28;19971;-78
2021/05/22 00:45:06;;;;;;;;;;;;;;;7.68;87.90;100005.56;5031120;28;19916;-76
2021/05/22 00:47:32;;;;;;;;;;;;;;;7.70;88.06;100010.63;5030534;28;19921;-77
2021/05/22 00:49:57;;;;;;;;;;;;;;;7.73;87.67;100012.97;5030811;28;20011;-77
2021/05/22 00:52:23;;;;;;;;;;;;;;;7.72;87.72;100011.31;5029471;28;20024;-77
2021/05/22 00:54:49;;;;;;;;;;;;;;;7.66;88.79;100011.91;5033076;28;20043;-76
2021/05/22 00:57:16;;;;;;;;;;;;;;;7.60;89.20;100010.69;5025405;28;19925;-75
2021/05/22 00:59:42;;;;;;;;;;;;;;;7.54;89.77;100016.50;5000920;28;20438;-76
2021/05/22 01:02:09;;;;;;;;;;;;;;;7.55;88.97;100011.13;5002571;28;19971;-79
2021/05/22 01:04:34;;;;;;;;;;;;;;;7.55;88.93;100011.13;5018157;28;20295;-78
2021/05/22 01:06:59;;;;;;;;;;;;;;;7.49;88.89;100009.09;5025708;28;20008;-78
2021/05/22 01:09:25;;;;;;;;;;;;;;;7.50;88.46;100012.53;4993403;28;21331;-76
2021/05/22 01:11:54;;;;;;;;;;;;;;;7.46;89.16;100011.16;5012107;28;19925;-77
2021/05/22 01:14:23;;;;;;;;;;;;;;;7.48;88.39;100009.22;5020968;28;20568;-76
2021/05/22 01:16:51;;;;;;;;;;;;;;;7.53;87.62;100007.81;5025329;28;19964;-77
2021/05/22 01:19:23;;;;;;;;;;;;;;;7.55;87.65;99999.84;5027805;28;20019;-76
2021/05/22 01:21:48;;;;;;;;;;;;;;;7.59;87.27;100001.19;5010387;28;20454;-79
2021/05/22 01:24:16;;;;;;;;;;;;;;;7.58;86.80;99987.34;5023582;28;19927;-75
2021/05/22 01:26:42;;;;;;;;;;;;;;;7.65;86.76;99997.19;5030657;28;19921;-75
2021/05/22 01:29:08;;;;;;;;;;;;;;;7.65;88.18;99995.41;5021192;28;19925;-76
2021/05/22 01:31:34;;;;;;;;;;;;;;;7.50;88.90;99992.47;5030930;28;19929;-77
2021/05/22 01:34:00;;;;;;;;;;;;;;;7.52;87.45;99989.72;5032466;28;19921;-78
2021/05/22 01:36:42;;;;;;;;;;;;;;;7.45;88.78;99988.66;5026864;28;19917;-78
2021/05/22 01:39:07;;;;;;;;;;;;;;;7.38;88.47;99991.84;5020812;28;19921;-76
2021/05/22 01:41:33;;;;;;;;;;;;;;;7.14;89.90;99988.91;5029610;28;20622;-77
2021/05/22 01:44:00;;;;;;;;;;;;;;;6.91;90.90;99986.66;5029857;28;20322;-76
2021/05/22 01:46:26;;;;;;;;;;;;;;;6.72;91.44;99992.72;5023816;28;19921;-75
2021/05/22 01:48:52;;;;;;;;;;;;;;;6.70;91.78;99991.22;5012585;28;19928;-77
2021/05/22 01:51:19;;;;;;;;;;;;;;;6.81;90.92;99989.25;5015261;28;19936;-77
2021/05/22 01:54:03;;;;;;;;;;;;;;;6.94;89.89;99988.97;5028787;28;19917;-76
2021/05/22 01:56:29;;;;;;;;;;;;;;;7.04;89.17;99988.13;5014447;28;19928;-76
2021/05/22 01:58:54;;;;;;;;;;;;;;;7.12;88.13;99994.28;5009658;28;20295;-77
2021/05/22 02:01:24;;;;;;;;;;;;;;;7.18;88.00;99993.69;5025569;28;19917;-76
2021/05/22 02:03:51;;;;;;;;;;;;;;;7.21;87.72;99996.03;5009225;28;19925;-76
2021/05/22 02:06:22;;;;;;;;;;;;;;;7.27;87.14;99993.81;5024741;28;19982;-76
2021/05/22 02:08:50;;;;;;;;;;;;;;;7.24;87.19;99989.69;5006698;28;19924;-76
2021/05/22 02:11:15;;;;;;;;;;;;;;;7.21;87.16;99985.59;5016276;28;19927;-76
2021/05/22 02:13:43;;;;;;;;;;;;;;;7.25;86.56;99985.28;5021322;28;19921;-76
2021/05/22 02:16:09;;;;;;;;;;;;;;;7.24;86.90;99996.72;5010925;28;19924;-76
2021/05/22 02:18:35;;;;;;;;;;;;;;;7.32;86.05;100000.22;5007865;28;19921;-77
2021/05/22 02:21:01;;;;;;;;;;;;;;;7.30;86.12;99998.75;5029589;28;19921;-76
2021/05/22 02:23:27;;;;;;;;;;;;;;;7.23;87.22;100001.09;5017518;28;19979;-76
2021/05/22 02:25:54;;;;;;;;;;;;;;;7.14;87.20;99988.91;5005512;28;19928;-77
2021/05/22 02:28:20;;;;;;;;;;;;;;;7.15;87.52;99993.16;5008143;28;20015;-76
2021/05/22 02:30:46;;;;;;;;;;;;;;;7.14;87.30;99997.56;5026802;28;20027;-75
2021/05/22 02:33:12;;;;;;;;;;;;;;;7.13;87.35;99995.09;5016860;28;19929;-76
2021/05/22 02:35:40;;;;;;;;;;;;;;;7.13;87.63;99988.09;5008043;28;20384;-76
2021/05/22 02:38:07;;;;;;;;;;;;;;;7.08;87.77;99986.88;4999044;28;19917;-76
2021/05/22 02:40:33;;;;;;;;;;;;;;;7.10;87.45;99980.56;5018036;28;20295;-76
2021/05/22 02:43:04;;;;;;;;;;;;;;;7.18;86.75;99985.06;5018959;28;19921;-76
2021/05/22 02:45:31;;;;;;;;;;;;;;;7.21;86.55;99985.59;5016007;28;20391;-77
2021/05/22 02:47:57;;;;;;;;;;;;;;;7.19;87.00;99976.25;5008649;28;19921;-76
2021/05/22 02:50:24;;;;;;;;;;;;;;;7.17;87.23;99980.81;5012642;28;19925;-77
2021/05/22 02:52:51;;;;;;;;;;;;;;;7.18;87.40;99978.06;5018505;28;20004;-77
2021/05/22 02:55:16;;;;;;;;;;;;;;;7.18;87.55;99977.25;5015737;28;20011;-74
2021/05/22 02:57:43;;;;;;;;;;;;;;;7.15;88.02;99974.91;5031825;28;19992;-77
2021/05/22 03:00:09;;;;;;;;;;;;;;;7.12;88.01;99970.81;5018758;28;20441;-77
2021/05/22 03:02:36;;;;;;;;;;;;;;;7.15;88.05;99967.91;5022824;28;19957;-78
2021/05/22 03:05:02;;;;;;;;;;;;;;;7.15;88.29;99967.09;5015517;28;20009;-76
2021/05/22 03:07:28;;;;;;;;;;;;;;;7.13;87.98;99969.00;5018639;28;19921;-77
2021/05/22 03:09:53;;;;;;;;;;;;;;;7.09;88.57;99965.88;5012258;28;19970;-77
2021/05/22 03:12:20;;;;;;;;;;;;;;;7.09;88.56;99962.44;5017839;28;20019;-78
2021/05/22 03:14:46;;;;;;;;;;;;;;;7.06;88.58;99965.31;5022961;28;19916;-77
2021/05/22 03:17:11;;;;;;;;;;;;;;;7.09;88.47;99959.84;5011271;28;19928;-78
2021/05/22 03:19:36;;;;;;;;;;;;;;;7.00;88.88;99957.09;5008915;28;20458;-76
2021/05/22 03:22:02;;;;;;;;;;;;;;;7.04;89.09;99951.63;5018162;28;19928;-77
2021/05/22 03:24:27;;;;;;;;;;;;;;;6.99;89.07;99947.66;5011433;28;19924;-78
2021/05/22 03:26:53;;;;;;;;;;;;;;;6.97;89.41;99949.59;5037347;28;20063;-77
2021/05/22 03:29:19;;;;;;;;;;;;;;;7.04;89.16;99951.63;5014665;28;19917;-76
2021/05/22 03:31:44;;;;;;;;;;;;;;;7.00;89.33;99951.88;5026315;28;19921;-77
2021/05/22 03:34:30;;;;;;;;;;;;;;;7.01;89.07;99948.34;5018944;28;19923;-77
2021/05/22 03:36:55;;;;;;;;;;;;;;;6.98;89.11;99946.00;5020828;28;19924;-77
2021/05/22 03:39:21;;;;;;;;;;;;;;;6.94;89.76;99949.84;5008870;28;19913;-75
2021/05/22 03:41:46;;;;;;;;;;;;;;;6.99;89.33;99945.06;5018630;28;19921;-77
2021/05/22 03:44:12;;;;;;;;;;;;;;;6.96;88.90;99939.28;5026294;28;20000;-77
2021/05/22 03:46:37;;;;;;;;;;;;;;;6.98;89.34;99945.19;5009473;28;19917;-77
2021/05/22 03:49:03;;;;;;;;;;;;;;;6.98;89.53;99947.78;5021380;28;19940;-76
2021/05/22 03:51:28;;;;;;;;;;;;;;;7.06;88.73;99942.69;5006346;28;19921;-76
2021/05/22 03:53:53;;;;;;;;;;;;;;;7.09;88.56;99938.97;5005245;28;19917;-76
2021/05/22 03:56:19;;;;;;;;;;;;;;;7.24;88.27;99944.53;4995246;28;20526;-76
2021/05/22 03:58:45;;;;;;;;;;;;;;;7.30;87.45;99936.13;5019453;28;19921;-76
2021/05/22 04:01:10;;;;;;;;;;;;;;;7.29;87.88;99937.94;5022999;28;19921;-75
2021/05/22 04:03:36;;;;;;;;;;;;;;;7.40;87.52;99949.94;4993018;28;19967;-76
2021/05/22 04:06:01;;;;;;;;;;;;;;;7.43;87.53;99941.03;5030579;28;19917;-77
2021/05/22 04:08:26;;;;;;;;;;;;;;;7.46;87.52;99944.16;4997966;28;19920;-75
2021/05/22 04:10:52;;;;;;;;;;;;;;;7.55;87.58;99935.47;5005545;28;20458;-77
2021/05/22 04:13:17;;;;;;;;;;;;;;;7.63;87.07;99939.94;5018253;28;20426;-76
2021/05/22 04:15:43;;;;;;;;;;;;;;;7.67;87.62;99941.28;5019523;28;19917;-76
2021/05/22 04:18:12;;;;;;;;;;;;;;;7.75;87.39;99941.34;5021629;28;19913;-76
2021/05/22 04:20:38;;;;;;;;;;;;;;;7.85;85.82;99943.09;5025006;28;20331;-77
2021/05/22 04:23:03;;;;;;;;;;;;;;;7.93;85.92;99937.94;5019007;28;19957;-76
2021/05/22 04:25:29;;;;;;;;;;;;;;;8.05;85.82;99939.34;5026993;28;20007;-75
2021/05/22 04:27:54;;;;;;;;;;;;;;;8.13;85.03;99943.84;5024240;28;19923;-76
2021/05/22 04:30:20;;;;;;;;;;;;;;;8.16;85.06;99946.97;5019949;28;20002;-76
2021/05/22 04:32:46;;;;;;;;;;;;;;;8.20;84.61;99947.50;5022993;28;19956;-78
2021/05/22 04:35:12;;;;;;;;;;;;;;;8.28;84.43;99941.50;5026981;28;20197;-76
2021/05/22 04:37:37;;;;;;;;;;;;;;;8.33;83.92;99940.09;5026580;28;20405;-76
2021/05/22 04:40:04;;;;;;;;;;;;;;;8.37;84.01;99944.03;5012606;28;19917;-77
2021/05/22 04:42:30;;;;;;;;;;;;;;;8.40;83.96;99950.75;5008760;28;19931;-77
2021/05/22 04:44:56;;;;;;;;;;;;;;;8.50;83.20;99945.47;5018197;28;19917;-78
2021/05/22 04:47:21;;;;;;;;;;;;;;;8.50;82.53;99943.66;5033832;28;19916;-77
2021/05/22 04:49:47;;;;;;;;;;;;;;;8.60;81.60;99938.34;5017868;28;19945;-76
2021/05/22 04:52:12;;;;;;;;;;;;;;;8.65;81.30;99949.16;5024242;28;19975;-77
2021/05/22 04:54:38;;;;;;;;;;;;;;;8.64;82.24;99951.94;5029858;28;19917;-77
2021/05/22 04:57:04;;;;;;;;;;;;;;;8.66;81.80;99947.38;4994155;28;19995;-76
2021/05/22 04:59:29;;;;;;;;;;;;;;;8.64;81.82;99949.31;5009574;28;19952;-77
2021/05/22 05:01:54;;;;;;;;;;;;;;;8.70;82.54;99946.06;5030159;28;19935;-77
2021/05/22 05:04:20;;;;;;;;;;;;;;;8.73;82.38;99943.16;5028666;28;19929;-78
2021/05/22 05:06:45;;;;;;;;;;;;;;;8.82;81.82;99944.06;5024293;28;20559;-76
2021/05/22 05:09:11;;;;;;;;;;;;;;;8.86;81.60;99954.03;5009261;28;19917;-77
2021/05/22 05:11:36;;;;;;;;;;;;;;;8.88;82.67;99949.47;5006897;28;19935;-76
2021/05/22 05:14:02;;;;;;;;;;;;;;;8.95;82.50;99947.06;5016309;28;19971;-77
2021/05/22 05:16:28;;;;;;;;;;;;;;;8.95;80.95;99953.09;5007328;28;19957;-77
2021/05/22 05:18:54;;;;;;;;;;;;;;;9.00;80.70;99952.63;5028282;28;20575;-76
2021/05/22 05:21:20;;;;;;;;;;;;;;;9.00;81.64;99941.34;5025092;28;19921;-76
2021/05/22 05:23:45;;;;;;;;;;;;;;;9.18;79.47;99944.72;5003420;28;19932;-76
2021/05/22 05:26:10;;;;;;;;;;;;;;;9.31;80.84;99941.66;5028604;28;19917;-76
2021/05/22 05:28:37;;;;;;;;;;;;;;;9.45;78.60;99945.47;5009032;28;19924;-77
2021/05/22 05:31:02;;;;;;;;;;;;;;;9.70;79.20;99946.34;5009854;28;19974;-76
2021/05/22 05:33:28;;;;;;;;;;;;;;;10.09;76.51;99941.34;5024310;28;19929;-77
2021/05/22 05:35:54;;;;;;;;;;;;;;;10.42;75.20;99938.75;5029417;28;19917;-76
2021/05/22 05:38:19;;;;;;;;;;;;;;;10.54;75.51;99934.00;5012000;28;19971;-77
2021/05/22 05:40:45;;;;;;;;;;;;;;;10.54;73.58;99944.47;5010851;28;19921;-75
2021/05/22 05:43:11;;;;;;;;;;;;;;;10.58;75.42;99939.72;5022669;28;19925;-75
2021/05/22 05:45:37;;;;;;;;;;;;;;;10.56;74.45;99931.19;5024485;28;19968;-76
2021/05/22 05:48:04;;;;;;;;;;;;;;;10.45;73.77;99933.19;5018750;28;19968;-75
2021/05/22 05:50:29;;;;;;;;;;;;;;;10.45;73.81;99938.44;5007856;28;19921;-75
2021/05/22 05:52:55;;;;;;;;;;;;;;;10.56;73.42;99936.44;5010000;28;20380;-76
2021/05/22 05:55:20;;;;;;;;;;;;;;;10.64;72.88;99926.78;5028330;28;19925;-76
2021/05/22 05:57:46;;;;;;;;;;;;;;;10.78;73.88;99927.06;5027294;28;19944;-77
2021/05/22 06:00:11;;;;;;;;;;;;;;;10.92;71.65;99926.38;5024134;28;20014;-77
2021/05/22 06:02:37;;;;;;;;;;;;;;;10.96;72.74;99942.59;5027667;28;19921;-76
2021/05/22 06:05:02;;;;;;;;;;;;;;;11.03;71.63;99933.88;5028273;28;19921;-76
2021/05/22 06:07:28;;;;;;;;;;;;;;;11.10;71.04;99936.66;5009801;28;19921;-77
2021/05/22 06:09:53;;;;;;;;;;;;;;;11.22;71.10;99948.41;5026855;28;19967;-76
2021/05/22 06:12:19;;;;;;;;;;;;;;;11.32;69.54;99926.38;5029208;28;19925;-78
2021/05/22 06:14:50;;;;;;;;;;;;;;;11.39;70.43;99938.66;5007226;28;19945;-77
2021/05/22 06:17:16;;;;;;;;;;;;;;;11.53;69.13;99937.13;5023939;28;19922;-76
2021/05/22 06:19:41;;;;;;;;;;;;;;;11.48;69.72;99934.19;5026991;28;20464;-78
2021/05/22 06:22:07;;;;;;;;;;;;;;;11.61;68.98;99931.81;5011725;28;20379;-77
2021/05/22 06:24:32;;;;;;;;;;;;;;;11.51;68.85;99925.97;5006817;28;20443;-77
2021/05/22 06:26:58;;;;;;;;;;;;;;;11.79;68.77;99935.97;5009621;28;19928;-76
2021/05/22 06:29:23;;;;;;;;;;;;;;;11.75;68.25;99930.25;5013017;28;19921;-76
2021/05/22 06:31:49;;;;;;;;;;;;;;;11.74;68.27;99933.06;5019605;28;19926;-77
2021/05/22 06:34:15;;;;;;;;;;;;;;;11.91;69.06;99936.44;5027344;28;19924;-76
2021/05/22 06:36:40;;;;;;;;;;;;;;;12.20;66.67;99930.47;5029022;28;20414;-76
2021/05/22 06:39:06;;;;;;;;;;;;;;;12.09;66.77;99923.81;5011824;28;20339;-77
2021/05/22 06:41:31;;;;;;;;;;;;;;;11.91;66.05;99931.19;4990986;28;20019;-77
2021/05/22 06:43:57;;;;;;;;;;;;;;;11.81;67.92;99936.63;5024300;28;19917;-76
2021/05/22 06:48:48;;;;;;;;;;;;;;;11.63;68.31;99927.19;5026709;28;19924;-76
2021/05/22 06:51:14;;;;;;;;;;;;;;;11.58;67.73;99931.34;5027592;28;20276;-76
2021/05/22 06:53:39;;;;;;;;;;;;;;;11.59;69.38;99935.63;5022858;28;19952;-76
2021/05/22 06:56:05;;;;;;;;;;;;;;;11.68;69.63;99945.91;5026305;28;19940;-78
2021/05/22 06:58:30;;;;;;;;;;;;;;;11.70;68.75;99937.84;5013905;28;20388;-78
2021/05/22 07:00:57;;;;;;;;;;;;;;;11.71;67.66;99947.34;5016238;28;19921;-77
2021/05/22 07:03:22;;;;;;;;;;;;;;;11.73;69.07;99945.38;5005624;28;20276;-78
2021/05/22 07:05:49;;;;;;;;;;;;;;;11.69;68.76;99939.63;5041781;28;20485;-75
2021/05/22 07:08:16;;;;;;;;;;;;;;;11.67;69.00;99925.84;5018322;28;19918;-77
2021/05/22 07:10:42;;;;;;;;;;;;;;;11.83;68.81;99932.03;5010496;28;19940;-76
2021/05/22 07:13:07;;;;;;;;;;;;;;;12.01;67.73;99940.44;5019952;28;19979;-75
2021/05/22 07:15:32;;;;;;;;;;;;;;;12.16;66.84;99929.19;5027084;28;19924;-76
2021/05/22 07:17:59;;;;;;;;;;;;;;;12.11;66.96;99921.00;5025261;28;20020;-77
2021/05/22 07:20:25;;;;;;;;;;;;;;;12.11;66.33;99927.09;5007045;28;20004;-76
2021/05/22 07:22:51;;;;;;;;;;;;;;;12.10;67.55;99935.16;5026054;28;19920;-74
2021/05/22 07:25:20;;;;;;;;;;;;;;;12.15;67.48;99943.31;5024678;28;19959;-75
2021/05/22 07:27:48;;;;;;;;;;;;;;;12.09;66.07;99936.94;5008558;28;20414;-76
2021/05/22 07:30:14;;;;;;;;;;;;;;;12.26;66.27;99930.59;5028178;28;19929;-74
2021/05/22 07:32:40;;;;;;;;;;;;;;;12.27;64.95;99921.69;5026560;28;20031;-75
2021/05/22 07:35:06;;;;;;;;;;;;;;;12.40;65.98;99931.59;5027230;28;20017;-76
2021/05/22 07:37:32;;;;;;;;;;;;;;;12.53;66.43;99924.94;5011893;28;19921;-76
2021/05/22 07:39:57;;;;;;;;;;;;;;;12.55;64.15;99929.00;5030098;28;19920;-75
2021/05/22 07:42:26;;;;;;;;;;;;;;;12.56;65.73;99929.81;5028997;28;19917;-77
2021/05/22 07:44:52;;;;;;;;;;;;;;;12.66;66.42;99922.50;5028509;28;20011;-77
2021/05/22 07:47:18;;;;;;;;;;;;;;;12.62;65.60;99931.72;5010847;28;19921;-76
2021/05/22 07:49:43;;;;;;;;;;;;;;;12.64;66.30;99920.03;5027164;28;19921;-75
2021/05/22 07:52:10;;;;;;;;;;;;;;;12.79;64.54;99919.22;5009982;28;19972;-77
2021/05/22 07:54:36;;;;;;;;;;;;;;;12.87;64.41;99924.41;5009995;28;19917;-77
2021/05/22 07:57:04;;;;;;;;;;;;;;;12.82;64.30;99916.22;5027905;28;19921;-76
2021/05/22 07:59:30;;;;;;;;;;;;;;;12.72;64.31;99921.75;5021630;28;20440;-77
2021/05/22 08:01:55;;;;;;;;;;;;;;;12.59;64.42;99932.91;5032191;28;19925;-76
2021/05/22 08:04:21;;;;;;;;;;;;;;;12.55;64.95;99934.25;5025699;28;19924;-77
2021/05/22 08:06:46;;;;;;;;;;;;;;;12.51;66.01;99927.72;5025351;28;19921;-76
2021/05/22 08:09:12;;;;;;;;;;;;;;;12.48;67.51;99929.91;5027853;28;19921;-76
2021/05/22 08:11:37;;;;;;;;;;;;;;;12.30;66.09;99927.56;5026825;28;19983;-77
2021/05/22 08:14:03;;;;;;;;;;;;;;;12.11;66.57;99934.97;5020721;28;19971;-75
2021/05/22 08:16:28;;;;;;;;;;;;;;;12.16;65.06;99935.25;5027591;28;19928;-76
2021/05/22 08:18:53;;;;;;;;;;;;;;;12.24;68.03;99934.38;5026658;28;19923;-77
2021/05/22 08:21:22;;;;;;;;;;;;;;;12.22;65.15;99931.09;5001021;28;19928;-77
2021/05/22 08:23:48;;;;;;;;;;;;;;;12.19;66.06;99928.84;5026989;28;19920;-77
2021/05/22 08:26:13;;;;;;;;;;;;;;;12.13;65.80;99932.16;5028063;28;19927;-77
2021/05/22 08:28:39;;;;;;;;;;;;;;;12.13;65.68;99935.63;5029739;28;19944;-77
2021/05/22 08:31:04;;;;;;;;;;;;;;;12.10;66.50;99920.19;5030967;28;20288;-77
2021/05/22 08:33:30;;;;;;;;;;;;;;;12.07;66.97;99936.31;5030115;28;20031;-77
2021/05/22 08:35:55;;;;;;;;;;;;;;;12.09;67.95;99942.19;5034966;28;20670;-77
2021/05/22 08:38:20;;;;;;;;;;;;;;;12.29;68.45;99937.28;5015774;28;19917;-77
2021/05/22 08:40:46;;;;;;;;;;;;;;;12.35;68.98;99931.31;5033138;28;19928;-76
2021/05/22 08:43:12;;;;;;;;;;;;;;;12.29;70.11;99937.28;5027267;28;19921;-78
2021/05/22 08:45:37;;;;;;;;;;;;;;;12.16;71.06;99947.59;5024792;28;20012;-79
2021/05/22 08:48:03;;;;;;;;;;;;;;;12.03;69.85;99943.72;5031627;28;19994;-77
2021/05/22 08:50:29;;;;;;;;;;;;;;;11.92;72.87;99940.69;5030265;28;19925;-76
2021/05/22 08:52:55;;;;;;;;;;;;;;;11.93;73.76;99948.41;5030329;28;20530;-77
2021/05/22 08:55:23;;;;;;;;;;;;;;;11.99;76.68;99945.06;5012328;28;19936;-76
2021/05/22 08:57:49;;;;;;;;;;;;;;;12.04;73.12;99949.81;5011974;28;19918;-77
2021/05/22 09:00:16;;;;;;;;;;;;;;;12.11;72.35;99948.13;5019145;28;20345;-76
2021/05/22 09:02:44;;;;;;;;;;;;;;;12.11;70.96;99953.38;5026648;28;20003;-77
2021/05/22 09:05:09;;;;;;;;;;;;;;;12.00;71.58;99957.22;5028337;28;20678;-76
2021/05/22 09:07:37;;;;;;;;;;;;;;;11.88;72.89;99951.53;5030232;28;19928;-76
2021/05/22 09:10:08;;;;;;;;;;;;;;;11.72;74.19;99962.13;5027957;28;20414;-77
2021/05/22 09:12:35;;;;;;;;;;;;;;;11.58;73.89;99955.78;5028279;28;20722;-76
2021/05/22 09:15:06;;;;;;;;;;;;;;;11.48;75.86;99963.88;5026278;28;19928;-75
2021/05/22 09:17:31;;;;;;;;;;;;;;;11.28;76.85;99970.53;5029569;28;19925;-76
2021/05/22 09:20:09;;;;;;;;;;;;;;;11.07;78.74;99976.34;5028517;28;19921;-76
2021/05/22 09:22:35;;;;;;;;;;;;;;;10.88;80.74;99972.28;5019853;28;19921;-77
2021/05/22 09:25:02;;;;;;;;;;;;;;;10.80;81.50;99988.06;5029851;28;19932;-77
2021/05/22 09:27:35;;;;;;;;;;;;;;;10.82;83.76;99978.22;5030317;28;19917;-77
2021/05/22 09:30:14;;;;;;;;;;;;;;;10.87;84.08;99989.03;5022492;28;19928;-77
2021/05/22 09:32:40;;;;;;;;;;;;;;;10.94;82.53;99976.88;5029476;28;20358;-77
2021/05/22 09:35:06;;;;;;;;;;;;;;;11.13;84.00;99990.59;5012427;28;19985;-75
2021/05/22 09:37:42;;;;;;;;;;;;;;;11.27;82.36;99989.91;5029188;28;20334;-77
2021/05/22 09:40:07;;;;;;;;;;;;;;;11.41;80.14;99983.94;5024219;28;20594;-75
2021/05/22 09:42:33;;;;;;;;;;;;;;;11.43;81.99;99989.00;5025426;28;19921;-77
2021/05/22 09:44:58;;;;;;;;;;;;;;;11.40;80.32;99979.69;5031138;28;19921;-77
2021/05/22 09:47:24;;;;;;;;;;;;;;;11.33;80.89;99981.34;5028334;28;19971;-76
2021/05/22 09:49:50;;;;;;;;;;;;;;;11.27;80.79;99974.97;5027767;28;19927;-76
2021/05/22 09:52:16;;;;;;;;;;;;;;;11.17;80.63;99979.63;5028444;28;19921;-78
2021/05/22 09:54:48;;;;;;;;;;;;;;;11.21;83.13;99970.41;5028430;28;19948;-77
2021/05/22 09:57:15;;;;;;;;;;;;;;;11.22;80.62;99979.09;5011308;28;19959;-77
2021/05/22 09:59:41;;;;;;;;;;;;;;;11.21;81.43;99983.53;5020251;28;19921;-76
2021/05/22 10:02:06;;;;;;;;;;;;;;;11.25;79.03;99979.56;5025112;28;19917;-75
2021/05/22 10:04:32;;;;;;;;;;;;;;;11.46;81.11;99983.44;5008876;28;19917;-75
2021/05/22 10:06:57;;;;;;;;;;;;;;;11.49;81.62;99985.72;5008799;28;20458;-76
2021/05/22 10:09:24;;;;;;;;;;;;;;;11.43;79.38;99979.34;5025418;28;20284;-77
2021/05/22 10:12:00;;;;;;;;;;;;;;;11.46;80.08;99971.13;5021693;28;19931;-77
2021/05/22 10:14:27;;;;;;;;;;;;;;;11.60;81.58;99971.38;5025800;28;20436;-76
2021/05/22 10:16:52;;;;;;;;;;;;;;;11.64;79.25;99970.03;5029883;28;19921;-77
2021/05/22 10:19:19;;;;;;;;;;;;;;;11.53;79.91;99973.03;5025585;28;19928;-76
2021/05/22 10:21:44;;;;;;;;;;;;;;;11.51;81.06;99965.38;5008304;28;19955;-77
2021/05/22 10:24:10;;;;;;;;;;;;;;;11.25;80.67;99984.00;5026054;28;19928;-77
2021/05/22 10:26:36;;;;;;;;;;;;;;;11.22;81.23;99979.09;5028714;28;19955;-76
2021/05/22 10:29:01;;;;;;;;;;;;;;;11.24;81.13;99982.38;5007121;28;19929;-75
2021/05/22 10:31:27;;;;;;;;;;;;;;;11.16;80.93;99980.59;5027302;28;19932;-77
2021/05/22 10:33:52;;;;;;;;;;;;;;;10.97;81.68;99980.97;5026830;28;19920;-77
2021/05/22 10:36:41;;;;;;;;;;;;;;;10.85;81.97;99980.47;5026694;28;20015;-77
2021/05/22 10:39:07;;;;;;;;;;;;;;;10.83;83.71;99993.78;5010357;28;19917;-78
2021/05/22 10:41:38;;;;;;;;;;;;;;;10.80;83.84;99991.50;5031362;28;19936;-77
2021/05/22 10:44:04;;;;;;;;;;;;;;;10.75;86.34;99988.53;5014085;28;19968;-76
2021/05/22 10:46:29;;;;;;;;;;;;;;;10.68;84.79;99991.03;5030207;28;19952;-76
2021/05/22 10:49:00;;;;;;;;;;;;;;;10.68;85.02;99988.41;5030063;28;19917;-77
2021/05/22 10:51:27;;;;;;;;;;;;;;;10.69;85.96;99994.47;5030729;28;20004;-77
2021/05/22 10:53:57;;;;;;;;;;;;;;;10.71;85.12;99995.09;5024463;28;20011;-76
2021/05/22 10:56:22;;;;;;;;;;;;;;;10.71;86.60;99995.91;5030429;28;19975;-77
2021/05/22 10:58:57;;;;;;;;;;;;;;;10.77;86.65;99994.44;5026147;28;20076;-77
2021/05/22 11:01:59;;;;;;;;;;;;;;;10.71;86.37;99989.84;5012081;28;19917;-77
2021/05/22 11:04:20;;;;;;;;;;;;;;;10.73;86.96;100008.06;5030552;28;19917;-76
2021/05/22 11:06:51;;;;;;;;;;;;;;;10.73;85.47;99995.75;5029839;28;19943;-77
2021/05/22 11:09:26;;;;;;;;;;;;;;;10.69;84.63;99999.69;5011190;28;19917;-76
2021/05/22 11:12:17;;;;;;;;;;;;;;;10.68;85.59;100013.78;5016331;28;19999;-77
2021/05/22 11:14:43;;;;;;;;;;;;;;;10.60;86.26;100019.03;5003551;28;20371;-76
2021/05/22 11:17:28;;;;;;;;;;;;;;;10.65;86.48;99998.41;5016191;28;19950;-77
2021/05/22 11:19:56;;;;;;;;;;;;;;;10.56;86.42;100002.00;5013381;28;19917;-77
2021/05/22 11:22:22;;;;;;;;;;;;;;;10.60;87.33;100006.75;5027517;28;19914;-76
2021/05/22 11:25:07;;;;;;;;;;;;;;;10.51;86.09;100003.31;5031730;28;19959;-77
2021/05/22 11:27:46;;;;;;;;;;;;;;;10.55;86.52;100005.59;5026760;28;19917;-77
2021/05/22 11:30:13;;;;;;;;;;;;;;;10.52;86.86;100012.81;5028115;28;19924;-77
2021/05/22 11:32:42;;;;;;;;;;;;;;;10.60;88.27;100005.94;5032424;28;19923;-77
2021/05/22 11:35:30;;;;;;;;;;;;;;;10.67;86.17;100017.41;5029792;28;19917;-77
2021/05/22 11:38:19;;;;;;;;;;;;;;;10.67;85.92;100020.84;5009716;28;19917;-77
2021/05/22 11:40:44;;;;;;;;;;;;;;;10.69;85.03;100008.38;5011167;28;19920;-77
2021/05/22 11:43:22;;;;;;;;;;;;;;;10.69;86.76;100021.50;5021290;28;19916;-77
2021/05/22 11:45:49;;;;;;;;;;;;;;;10.70;84.53;100025.78;5026362;28;19920;-76
2021/05/22 11:48:25;;;;;;;;;;;;;;;10.71;87.24;100021.34;5026509;28;20449;-75
2021/05/22 11:50:51;;;;;;;;;;;;;;;10.67;87.28;100031.34;5025364;28;20051;-76
2021/05/22 11:53:18;;;;;;;;;;;;;;;10.65;85.19;100028.06;5009763;28;19917;-77
2021/05/22 11:56:03;;;;;;;;;;;;;;;10.66;86.60;100026.25;5026744;28;19917;-77
2021/05/22 11:58:29;;;;;;;;;;;;;;;10.66;85.08;100029.72;5024199;28;19917;-76
2021/05/22 12:00:55;;;;;;;;;;;;;;;10.73;85.13;100026.41;5027089;28;20294;-77
2021/05/22 12:03:24;;;;;;;;;;;;;;;10.84;85.32;100026.09;5026620;28;19947;-77
2021/05/22 12:05:49;;;;;;;;;;;;;;;10.96;84.12;100022.13;5023231;28;19924;-75
2021/05/22 12:08:21;;;;;;;;;;;;;;;11.03;83.52;100024.91;5027440;28;19913;-76
2021/05/22 12:10:46;;;;;;;;;;;;;;;11.10;82.71;100033.75;5036118;28;20455;-76
2021/05/22 12:13:12;;;;;;;;;;;;;;;11.23;83.46;100023.56;5017576;28;19913;-77
2021/05/22 12:15:40;;;;;;;;;;;;;;;11.41;83.55;100025.94;5024874;28;19917;-76
2021/05/22 12:18:06;;;;;;;;;;;;;;;11.57;83.22;100032.97;5025744;28;20055;-76
2021/05/22 12:20:44;;;;;;;;;;;;;;;11.71;81.41;100033.22;5005402;28;20462;-77
2021/05/22 12:23:23;;;;;;;;;;;;;;;11.91;82.14;100033.66;5025926;28;20035;-75
2021/05/22 12:25:50;;;;;;;;;;;;;;;11.98;80.11;100019.66;5025675;28;19975;-77
2021/05/22 12:28:15;;;;;;;;;;;;;;;11.94;80.87;100028.91;5028660;28;19960;-77
2021/05/22 12:30:40;;;;;;;;;;;;;;;11.79;79.19;100046.31;5029696;28;19952;-77
2021/05/22 12:33:10;;;;;;;;;;;;;;;11.79;79.80;100041.06;5030402;28;19917;-77
2021/05/22 12:35:35;;;;;;;;;;;;;;;11.93;80.38;100043.00;5028550;28;20004;-77
2021/05/22 12:38:01;;;;;;;;;;;;;;;11.91;82.18;100037.09;5028005;28;20015;-76
2021/05/22 12:40:27;;;;;;;;;;;;;;;11.75;80.66;100051.09;5027489;28;19916;-76
2021/05/22 12:42:52;;;;;;;;;;;;;;;11.69;80.43;100055.22;5024502;28;20500;-75
2021/05/22 12:45:18;;;;;;;;;;;;;;;11.67;80.46;100051.13;5015503;28;19971;-75
2021/05/22 12:47:44;;;;;;;;;;;;;;;11.67;80.63;100053.78;5021442;28;19928;-76
2021/05/22 12:50:12;;;;;;;;;;;;;;;11.74;80.94;100059.97;5003783;28;20019;-76